sensor_id;sensor_type;location;lat;lon;timestamp;temperature;humidity
25450;DHT22;13371;52.080;5.624;2023-04-08T00:00:14;11.80;99.90
25450;DHT22;13371;52.080;5.624;2023-04-08T00:02:39;11.60;99.90
25450;DHT22;13371;52.080;5.624;2023-04-08T00:05:06;11.80;99.90
25450;DHT22;13371;52.080;5.624;2023-04-08T00:07:32;11.60;99.90
25450;DHT22;13371;52.080;5.624;2023-04-08T00:09:58;11.80;99.90
25450;DHT22;13371;52.080;5.624;2023-04-08T00:12:23;11.80;99.90
25450;DHT22;13371;52.080;5.624;2023-04-08T00:14:49;11.60;99.90
25450;DHT22;13371;52.080;5.624;2023-04-08T00:17:14;11.60;99.90
25450;DHT22;13371;52.080;5.624;2023-04-08T00:19:41;11.70;99.90
25450;DHT22;13371;52.080;5.624;2023-04-08T00:22:06;11.70;99.90
25450;DHT22;13371;52.080;5.624;2023-04-08T00:24:32;11.40;99.90
25450;DHT22;13371;52.080;5.624;2023-04-08T00:26:58;11.30;99.90
25450;DHT22;13371;52.080;5.624;2023-04-08T00:29:23;11.20;99.90
25450;DHT22;13371;52.080;5.624;2023-04-08T00:31:49;11.20;99.90
25450;DHT22;13371;52.080;5.624;2023-04-08T00:34:15;11.30;99.90
25450;DHT22;13371;52.080;5.624;2023-04-08T00:36:41;11.60;99.90
25450;DHT22;13371;52.080;5.624;2023-04-08T00:39:07;11.60;99.90
25450;DHT22;13371;52.080;5.624;2023-04-08T00:41:33;11.40;99.90
25450;DHT22;13371;52.080;5.624;2023-04-08T00:44:00;11.10;99.90
25450;DHT22;13371;52.080;5.624;2023-04-08T00:46:26;10.90;99.90
25450;DHT22;13371;52.080;5.624;2023-04-08T00:48:52;10.60;99.90
25450;DHT22;13371;52.080;5.624;2023-04-08T00:51:18;10.70;99.90
25450;DHT22;13371;52.080;5.624;2023-04-08T00:53:44;11.00;99.90
25450;DHT22;13371;52.080;5.624;2023-04-08T00:56:10;10.90;99.90
25450;DHT22;13371;52.080;5.624;2023-04-08T00:58:36;10.80;99.90
25450;DHT22;13371;52.080;5.624;2023-04-08T01:01:08;10.70;99.90
25450;DHT22;13371;52.080;5.624;2023-04-08T01:03:45;10.70;99.90
25450;DHT22;13371;52.080;5.624;2023-04-08T01:06:25;10.50;99.90
25450;DHT22;13371;52.080;5.624;2023-04-08T01:08:53;10.70;99.90
25450;DHT22;13371;52.080;5.624;2023-04-08T01:11:19;10.90;99.90
25450;DHT22;13371;52.080;5.624;2023-04-08T01:13:46;10.80;99.90
25450;DHT22;13371;52.080;5.624;2023-04-08T01:16:14;10.70;99.90
25450;DHT22;13371;52.080;5.624;2023-04-08T01:18:42;10.80;99.90
25450;DHT22;13371;52.080;5.624;2023-04-08T01:21:09;10.90;99.90
25450;DHT22;13371;52.080;5.624;2023-04-08T01:23:38;10.70;99.90
25450;DHT22;13371;52.080;5.624;2023-04-08T01:26:05;11.10;99.90
25450;DHT22;13371;52.080;5.624;2023-04-08T01:28:32;11.20;99.90
25450;DHT22;13371;52.080;5.624;2023-04-08T01:31:01;11.30;99.90
25450;DHT22;13371;52.080;5.624;2023-04-08T01:33:27;10.90;99.90
25450;DHT22;13371;52.080;5.624;2023-04-08T01:35:55;11.10;99.90
25450;DHT22;13371;52.080;5.624;2023-04-08T01:38:23;11.30;99.90
25450;DHT22;13371;52.080;5.624;2023-04-08T01:40:51;11.20;99.90
25450;DHT22;13371;52.080;5.624;2023-04-08T01:43:18;10.80;99.90
25450;DHT22;13371;52.080;5.624;2023-04-08T01:45:45;10.60;99.90
25450;DHT22;13371;52.080;5.624;2023-04-08T01:48:12;10.60;99.90
25450;DHT22;13371;52.080;5.624;2023-04-08T01:50:41;10.60;99.90
25450;DHT22;13371;52.080;5.624;2023-04-08T01:53:08;11.00;99.90
25450;DHT22;13371;52.080;5.624;2023-04-08T01:55:35;11.00;99.90
25450;DHT22;13371;52.080;5.624;2023-04-08T01:58:01;10.70;99.90
25450;DHT22;13371;52.080;5.624;2023-04-08T02:00:30;10.20;99.90
25450;DHT22;13371;52.080;5.624;2023-04-08T02:02:57;10.40;99.90
25450;DHT22;13371;52.080;5.624;2023-04-08T02:05:23;10.20;99.90
25450;DHT22;13371;52.080;5.624;2023-04-08T02:07:48;10.10;99.90
25450;DHT22;13371;52.080;5.624;2023-04-08T02:10:14;10.00;99.90
25450;DHT22;13371;52.080;5.624;2023-04-08T02:12:41;9.90;99.90
25450;DHT22;13371;52.080;5.624;2023-04-08T02:15:08;10.00;99.90
25450;DHT22;13371;52.080;5.624;2023-04-08T02:17:50;10.00;99.90
25450;DHT22;13371;52.080;5.624;2023-04-08T02:23:24;10.20;99.90
25450;DHT22;13371;52.080;5.624;2023-04-08T02:25:54;9.90;99.90
25450;DHT22;13371;52.080;5.624;2023-04-08T02:28:20;9.70;99.90
25450;DHT22;13371;52.080;5.624;2023-04-08T02:30:49;9.50;99.90
25450;DHT22;13371;52.080;5.624;2023-04-08T02:33:17;9.60;99.90
25450;DHT22;13371;52.080;5.624;2023-04-08T02:35:44;9.30;99.90
25450;DHT22;13371;52.080;5.624;2023-04-08T02:38:10;9.20;99.90
25450;DHT22;13371;52.080;5.624;2023-04-08T02:40:36;9.40;99.90
25450;DHT22;13371;52.080;5.624;2023-04-08T02:43:02;9.90;99.90
25450;DHT22;13371;52.080;5.624;2023-04-08T02:45:30;9.50;99.90
25450;DHT22;13371;52.080;5.624;2023-04-08T02:47:56;9.40;99.90
25450;DHT22;13371;52.080;5.624;2023-04-08T02:50:22;9.40;99.90
25450;DHT22;13371;52.080;5.624;2023-04-08T02:52:48;9.40;99.90
25450;DHT22;13371;52.080;5.624;2023-04-08T02:55:13;9.50;99.90
25450;DHT22;13371;52.080;5.624;2023-04-08T02:57:40;8.90;99.90
25450;DHT22;13371;52.080;5.624;2023-04-08T03:00:07;8.90;99.90
25450;DHT22;13371;52.080;5.624;2023-04-08T03:02:32;9.00;99.90
25450;DHT22;13371;52.080;5.624;2023-04-08T03:04:58;8.80;99.90
25450;DHT22;13371;52.080;5.624;2023-04-08T03:07:24;8.70;99.90
25450;DHT22;13371;52.080;5.624;2023-04-08T03:09:50;9.00;99.90
25450;DHT22;13371;52.080;5.624;2023-04-08T03:12:15;9.10;99.90
25450;DHT22;13371;52.080;5.624;2023-04-08T03:14:41;9.20;99.90
25450;DHT22;13371;52.080;5.624;2023-04-08T03:17:07;9.40;99.90
25450;DHT22;13371;52.080;5.624;2023-04-08T03:19:33;9.60;99.90
25450;DHT22;13371;52.080;5.624;2023-04-08T03:21:58;9.70;99.90
25450;DHT22;13371;52.080;5.624;2023-04-08T03:24:24;9.70;99.90
25450;DHT22;13371;52.080;5.624;2023-04-08T03:26:49;9.50;99.90
25450;DHT22;13371;52.080;5.624;2023-04-08T03:29:15;9.20;99.90
25450;DHT22;13371;52.080;5.624;2023-04-08T03:31:41;8.90;99.90
25450;DHT22;13371;52.080;5.624;2023-04-08T03:34:06;8.60;99.90
25450;DHT22;13371;52.080;5.624;2023-04-08T03:36:32;8.30;99.90
25450;DHT22;13371;52.080;5.624;2023-04-08T03:38:57;8.50;99.90
25450;DHT22;13371;52.080;5.624;2023-04-08T03:41:23;8.30;99.90
25450;DHT22;13371;52.080;5.624;2023-04-08T03:43:48;8.50;99.90
25450;DHT22;13371;52.080;5.624;2023-04-08T03:46:14;8.20;99.90
25450;DHT22;13371;52.080;5.624;2023-04-08T03:48:39;7.60;99.90
25450;DHT22;13371;52.080;5.624;2023-04-08T03:51:05;7.60;99.90
25450;DHT22;13371;52.080;5.624;2023-04-08T03:53:30;7.50;99.90
25450;DHT22;13371;52.080;5.624;2023-04-08T03:55:56;7.70;99.90
25450;DHT22;13371;52.080;5.624;2023-04-08T03:58:22;7.70;99.90
25450;DHT22;13371;52.080;5.624;2023-04-08T04:00:48;7.70;99.90
25450;DHT22;13371;52.080;5.624;2023-04-08T04:03:13;7.70;99.90
25450;DHT22;13371;52.080;5.624;2023-04-08T04:05:39;8.10;99.90
25450;DHT22;13371;52.080;5.624;2023-04-08T04:08:05;7.70;99.90
25450;DHT22;13371;52.080;5.624;2023-04-08T04:10:30;8.00;99.90
25450;DHT22;13371;52.080;5.624;2023-04-08T04:12:56;7.80;99.90
25450;DHT22;13371;52.080;5.624;2023-04-08T04:15:21;7.90;99.90
25450;DHT22;13371;52.080;5.624;2023-04-08T04:17:48;8.00;99.90
25450;DHT22;13371;52.080;5.624;2023-04-08T04:20:17;7.90;99.90
25450;DHT22;13371;52.080;5.624;2023-04-08T04:22:42;7.70;99.90
25450;DHT22;13371;52.080;5.624;2023-04-08T04:25:08;8.10;99.90
25450;DHT22;13371;52.080;5.624;2023-04-08T04:27:34;8.40;99.90
25450;DHT22;13371;52.080;5.624;2023-04-08T04:30:01;8.50;99.90
25450;DHT22;13371;52.080;5.624;2023-04-08T04:32:27;8.60;99.90
25450;DHT22;13371;52.080;5.624;2023-04-08T04:34:53;8.20;99.90
25450;DHT22;13371;52.080;5.624;2023-04-08T04:37:18;8.20;99.90
25450;DHT22;13371;52.080;5.624;2023-04-08T04:39:44;8.40;99.90
25450;DHT22;13371;52.080;5.624;2023-04-08T04:42:10;8.30;99.90
25450;DHT22;13371;52.080;5.624;2023-04-08T04:44:35;8.20;99.90
25450;DHT22;13371;52.080;5.624;2023-04-08T04:47:01;8.20;99.90
25450;DHT22;13371;52.080;5.624;2023-04-08T04:49:27;8.40;99.90
25450;DHT22;13371;52.080;5.624;2023-04-08T04:51:52;8.60;99.90
25450;DHT22;13371;52.080;5.624;2023-04-08T04:54:18;8.40;99.90
25450;DHT22;13371;52.080;5.624;2023-04-08T04:56:43;8.20;99.90
25450;DHT22;13371;52.080;5.624;2023-04-08T04:59:09;8.50;99.90
25450;DHT22;13371;52.080;5.624;2023-04-08T05:01:35;8.50;99.90
25450;DHT22;13371;52.080;5.624;2023-04-08T05:04:00;8.70;99.90
25450;DHT22;13371;52.080;5.624;2023-04-08T05:06:26;8.80;99.90
25450;DHT22;13371;52.080;5.624;2023-04-08T05:08:52;8.60;99.90
25450;DHT22;13371;52.080;5.624;2023-04-08T05:11:17;8.50;99.90
25450;DHT22;13371;52.080;5.624;2023-04-08T05:13:43;8.60;99.90
25450;DHT22;13371;52.080;5.624;2023-04-08T05:16:09;8.40;99.90
25450;DHT22;13371;52.080;5.624;2023-04-08T05:18:35;8.50;99.90
25450;DHT22;13371;52.080;5.624;2023-04-08T05:21:01;8.20;99.90
25450;DHT22;13371;52.080;5.624;2023-04-08T05:23:27;8.20;99.90
25450;DHT22;13371;52.080;5.624;2023-04-08T05:25:53;8.10;99.90
25450;DHT22;13371;52.080;5.624;2023-04-08T05:28:18;7.50;99.90
25450;DHT22;13371;52.080;5.624;2023-04-08T05:30:49;7.40;99.90
25450;DHT22;13371;52.080;5.624;2023-04-08T05:33:15;7.40;99.90
25450;DHT22;13371;52.080;5.624;2023-04-08T05:35:41;7.20;99.90
25450;DHT22;13371;52.080;5.624;2023-04-08T05:38:06;7.10;99.90
25450;DHT22;13371;52.080;5.624;2023-04-08T05:40:32;7.20;99.90
25450;DHT22;13371;52.080;5.624;2023-04-08T05:42:57;7.10;99.90
25450;DHT22;13371;52.080;5.624;2023-04-08T05:45:23;6.70;99.90
25450;DHT22;13371;52.080;5.624;2023-04-08T05:47:49;6.40;99.90
25450;DHT22;13371;52.080;5.624;2023-04-08T05:50:14;6.10;99.90
25450;DHT22;13371;52.080;5.624;2023-04-08T05:52:44;6.00;99.90
25450;DHT22;13371;52.080;5.624;2023-04-08T05:55:11;6.10;99.90
25450;DHT22;13371;52.080;5.624;2023-04-08T05:57:36;6.50;99.90
25450;DHT22;13371;52.080;5.624;2023-04-08T06:00:04;7.00;99.90
25450;DHT22;13371;52.080;5.624;2023-04-08T06:02:30;7.20;99.90
25450;DHT22;13371;52.080;5.624;2023-04-08T06:04:56;7.40;99.90
25450;DHT22;13371;52.080;5.624;2023-04-08T06:07:21;7.70;99.90
25450;DHT22;13371;52.080;5.624;2023-04-08T06:09:47;7.60;99.90
25450;DHT22;13371;52.080;5.624;2023-04-08T06:12:12;7.60;99.90
25450;DHT22;13371;52.080;5.624;2023-04-08T06:14:38;7.10;99.90
25450;DHT22;13371;52.080;5.624;2023-04-08T06:17:04;7.10;99.90
25450;DHT22;13371;52.080;5.624;2023-04-08T06:19:29;7.20;99.90
25450;DHT22;13371;52.080;5.624;2023-04-08T06:21:55;7.20;99.90
25450;DHT22;13371;52.080;5.624;2023-04-08T06:24:24;7.00;99.90
25450;DHT22;13371;52.080;5.624;2023-04-08T06:26:50;6.90;99.90
25450;DHT22;13371;52.080;5.624;2023-04-08T06:29:17;6.80;99.90
25450;DHT22;13371;52.080;5.624;2023-04-08T06:31:42;6.60;99.90
25450;DHT22;13371;52.080;5.624;2023-04-08T06:34:08;6.60;99.90
25450;DHT22;13371;52.080;5.624;2023-04-08T06:36:33;6.40;99.90
25450;DHT22;13371;52.080;5.624;2023-04-08T06:38:59;6.60;99.90
25450;DHT22;13371;52.080;5.624;2023-04-08T06:41:25;6.90;99.90
25450;DHT22;13371;52.080;5.624;2023-04-08T06:43:50;6.80;99.90
25450;DHT22;13371;52.080;5.624;2023-04-08T06:46:16;7.00;99.90
25450;DHT22;13371;52.080;5.624;2023-04-08T06:48:41;7.00;99.90
25450;DHT22;13371;52.080;5.624;2023-04-08T06:51:07;7.10;99.90
25450;DHT22;13371;52.080;5.624;2023-04-08T06:53:32;7.10;99.90
25450;DHT22;13371;52.080;5.624;2023-04-08T06:55:58;7.50;99.90
25450;DHT22;13371;52.080;5.624;2023-04-08T06:58:24;7.50;99.90
25450;DHT22;13371;52.080;5.624;2023-04-08T07:00:53;7.40;99.90
25450;DHT22;13371;52.080;5.624;2023-04-08T07:03:20;7.40;99.90
25450;DHT22;13371;52.080;5.624;2023-04-08T07:05:46;7.50;99.90
25450;DHT22;13371;52.080;5.624;2023-04-08T07:08:12;7.60;99.90
25450;DHT22;13371;52.080;5.624;2023-04-08T07:10:37;8.10;99.90
25450;DHT22;13371;52.080;5.624;2023-04-08T07:13:03;8.10;99.90
25450;DHT22;13371;52.080;5.624;2023-04-08T07:15:29;8.30;99.90
25450;DHT22;13371;52.080;5.624;2023-04-08T07:17:54;8.20;99.90
25450;DHT22;13371;52.080;5.624;2023-04-08T07:20:24;8.70;99.90
25450;DHT22;13371;52.080;5.624;2023-04-08T07:22:50;8.80;99.90
25450;DHT22;13371;52.080;5.624;2023-04-08T07:25:16;8.90;99.90
25450;DHT22;13371;52.080;5.624;2023-04-08T07:27:42;8.70;99.90
25450;DHT22;13371;52.080;5.624;2023-04-08T07:30:07;8.40;99.90
25450;DHT22;13371;52.080;5.624;2023-04-08T07:32:33;8.50;99.90
25450;DHT22;13371;52.080;5.624;2023-04-08T07:34:59;8.60;99.90
25450;DHT22;13371;52.080;5.624;2023-04-08T07:37:26;9.00;99.90
25450;DHT22;13371;52.080;5.624;2023-04-08T07:39:52;9.00;99.90
25450;DHT22;13371;52.080;5.624;2023-04-08T07:42:17;9.10;99.90
25450;DHT22;13371;52.080;5.624;2023-04-08T07:44:44;9.40;99.90
25450;DHT22;13371;52.080;5.624;2023-04-08T07:47:10;9.60;99.90
25450;DHT22;13371;52.080;5.624;2023-04-08T07:49:36;9.60;99.90
25450;DHT22;13371;52.080;5.624;2023-04-08T07:52:02;9.90;99.90
25450;DHT22;13371;52.080;5.624;2023-04-08T07:54:29;10.40;99.90
25450;DHT22;13371;52.080;5.624;2023-04-08T07:56:55;10.70;99.90
25450;DHT22;13371;52.080;5.624;2023-04-08T07:59:21;10.30;99.90
25450;DHT22;13371;52.080;5.624;2023-04-08T08:01:47;10.40;99.90
25450;DHT22;13371;52.080;5.624;2023-04-08T08:04:12;10.20;99.90
25450;DHT22;13371;52.080;5.624;2023-04-08T08:06:38;10.70;99.90
25450;DHT22;13371;52.080;5.624;2023-04-08T08:09:03;11.20;99.90
25450;DHT22;13371;52.080;5.624;2023-04-08T08:11:29;11.10;99.90
25450;DHT22;13371;52.080;5.624;2023-04-08T08:13:55;10.90;99.90
25450;DHT22;13371;52.080;5.624;2023-04-08T08:16:21;11.40;99.90
25450;DHT22;13371;52.080;5.624;2023-04-08T08:18:47;11.50;99.70
25450;DHT22;13371;52.080;5.624;2023-04-08T08:21:12;11.60;99.90
25450;DHT22;13371;52.080;5.624;2023-04-08T08:23:38;11.60;99.40
25450;DHT22;13371;52.080;5.624;2023-04-08T08:26:05;11.60;98.80
25450;DHT22;13371;52.080;5.624;2023-04-08T08:28:32;10.70;99.90
25450;DHT22;13371;52.080;5.624;2023-04-08T08:30:58;11.30;99.90
25450;DHT22;13371;52.080;5.624;2023-04-08T08:33:24;11.50;99.80
25450;DHT22;13371;52.080;5.624;2023-04-08T08:35:50;12.10;99.80
25450;DHT22;13371;52.080;5.624;2023-04-08T08:38:16;12.50;99.30
25450;DHT22;13371;52.080;5.624;2023-04-08T08:40:43;12.50;97.40
25450;DHT22;13371;52.080;5.624;2023-04-08T08:43:09;12.30;97.50
25450;DHT22;13371;52.080;5.624;2023-04-08T08:45:39;11.80;98.70
25450;DHT22;13371;52.080;5.624;2023-04-08T08:48:06;11.60;97.70
25450;DHT22;13371;52.080;5.624;2023-04-08T08:50:33;11.90;99.30
25450;DHT22;13371;52.080;5.624;2023-04-08T08:52:59;12.50;99.20
25450;DHT22;13371;52.080;5.624;2023-04-08T08:55:24;12.70;98.10
25450;DHT22;13371;52.080;5.624;2023-04-08T08:57:50;12.80;95.90
25450;DHT22;13371;52.080;5.624;2023-04-08T09:00:16;12.80;95.30
25450;DHT22;13371;52.080;5.624;2023-04-08T09:02:43;12.60;97.20
25450;DHT22;13371;52.080;5.624;2023-04-08T09:05:08;12.80;96.40
25450;DHT22;13371;52.080;5.624;2023-04-08T09:07:37;12.80;97.00
25450;DHT22;13371;52.080;5.624;2023-04-08T09:10:06;13.10;96.60
25450;DHT22;13371;52.080;5.624;2023-04-08T09:12:32;12.90;96.40
25450;DHT22;13371;52.080;5.624;2023-04-08T09:15:08;13.10;96.70
25450;DHT22;13371;52.080;5.624;2023-04-08T09:17:36;13.50;96.30
25450;DHT22;13371;52.080;5.624;2023-04-08T09:20:10;13.40;95.10
25450;DHT22;13371;52.080;5.624;2023-04-08T09:22:57;13.50;95.10
25450;DHT22;13371;52.080;5.624;2023-04-08T09:25:25;13.60;95.00
25450;DHT22;13371;52.080;5.624;2023-04-08T09:27:51;12.90;94.60
25450;DHT22;13371;52.080;5.624;2023-04-08T09:30:19;12.80;95.30
25450;DHT22;13371;52.080;5.624;2023-04-08T09:32:49;12.60;96.10
25450;DHT22;13371;52.080;5.624;2023-04-08T09:35:17;12.80;95.60
25450;DHT22;13371;52.080;5.624;2023-04-08T09:37:43;12.80;94.90
25450;DHT22;13371;52.080;5.624;2023-04-08T09:40:09;13.10;94.80
25450;DHT22;13371;52.080;5.624;2023-04-08T09:42:39;12.90;95.00
25450;DHT22;13371;52.080;5.624;2023-04-08T09:45:05;13.10;95.20
25450;DHT22;13371;52.080;5.624;2023-04-08T09:47:38;13.20;95.60
25450;DHT22;13371;52.080;5.624;2023-04-08T09:50:07;13.60;94.10
25450;DHT22;13371;52.080;5.624;2023-04-08T09:52:41;14.20;95.10
25450;DHT22;13371;52.080;5.624;2023-04-08T09:55:08;14.30;92.60
25450;DHT22;13371;52.080;5.624;2023-04-08T10:00:23;14.80;91.10
25450;DHT22;13371;52.080;5.624;2023-04-08T10:05:30;14.70;92.60
25450;DHT22;13371;52.080;5.624;2023-04-08T10:07:56;14.20;92.60
25450;DHT22;13371;52.080;5.624;2023-04-08T10:10:22;14.40;91.80
25450;DHT22;13371;52.080;5.624;2023-04-08T10:12:49;14.70;91.70
25450;DHT22;13371;52.080;5.624;2023-04-08T10:15:32;15.00;93.60
25450;DHT22;13371;52.080;5.624;2023-04-08T10:22:59;16.10;90.80
25450;DHT22;13371;52.080;5.624;2023-04-08T10:25:38;15.90;92.00
25450;DHT22;13371;52.080;5.624;2023-04-08T10:30:45;16.60;86.50
25450;DHT22;13371;52.080;5.624;2023-04-08T10:35:59;16.00;86.80
25450;DHT22;13371;52.080;5.624;2023-04-08T10:38:27;15.90;89.80
25450;DHT22;13371;52.080;5.624;2023-04-08T10:40:53;16.10;90.50
25450;DHT22;13371;52.080;5.624;2023-04-08T10:43:19;16.70;89.70
25450;DHT22;13371;52.080;5.624;2023-04-08T10:45:45;17.20;90.90
25450;DHT22;13371;52.080;5.624;2023-04-08T10:50:44;17.10;91.00
25450;DHT22;13371;52.080;5.624;2023-04-08T10:53:10;16.30;84.20
25450;DHT22;13371;52.080;5.624;2023-04-08T10:55:36;16.40;87.20
25450;DHT22;13371;52.080;5.624;2023-04-08T10:58:09;16.80;85.50
25450;DHT22;13371;52.080;5.624;2023-04-08T11:00:37;16.10;80.90
25450;DHT22;13371;52.080;5.624;2023-04-08T11:03:07;16.30;83.50
25450;DHT22;13371;52.080;5.624;2023-04-08T11:05:34;16.60;85.20
25450;DHT22;13371;52.080;5.624;2023-04-08T11:08:01;16.80;84.30
25450;DHT22;13371;52.080;5.624;2023-04-08T11:10:27;16.90;80.50
25450;DHT22;13371;52.080;5.624;2023-04-08T11:12:57;16.30;80.50
25450;DHT22;13371;52.080;5.624;2023-04-08T11:15:28;15.80;81.30
25450;DHT22;13371;52.080;5.624;2023-04-08T11:17:54;16.20;85.60
25450;DHT22;13371;52.080;5.624;2023-04-08T11:20:21;16.70;85.20
25450;DHT22;13371;52.080;5.624;2023-04-08T11:22:47;16.50;81.40
25450;DHT22;13371;52.080;5.624;2023-04-08T11:25:13;16.10;81.70
25450;DHT22;13371;52.080;5.624;2023-04-08T11:27:39;16.30;84.50
25450;DHT22;13371;52.080;5.624;2023-04-08T11:30:06;16.00;80.90
25450;DHT22;13371;52.080;5.624;2023-04-08T11:32:33;16.00;82.60
25450;DHT22;13371;52.080;5.624;2023-04-08T11:35:00;16.20;81.60
25450;DHT22;13371;52.080;5.624;2023-04-08T11:37:35;16.10;80.70
25450;DHT22;13371;52.080;5.624;2023-04-08T11:40:00;16.50;84.10
25450;DHT22;13371;52.080;5.624;2023-04-08T11:42:31;16.60;83.00
25450;DHT22;13371;52.080;5.624;2023-04-08T11:44:57;17.10;86.20
25450;DHT22;13371;52.080;5.624;2023-04-08T11:47:35;16.60;77.90
25450;DHT22;13371;52.080;5.624;2023-04-08T11:50:02;17.00;83.10
25450;DHT22;13371;52.080;5.624;2023-04-08T11:52:43;17.50;79.60
25450;DHT22;13371;52.080;5.624;2023-04-08T11:55:11;18.00;84.10
25450;DHT22;13371;52.080;5.624;2023-04-08T11:57:37;18.40;76.40
25450;DHT22;13371;52.080;5.624;2023-04-08T12:00:05;17.30;74.10
25450;DHT22;13371;52.080;5.624;2023-04-08T12:02:31;17.10;75.70
25450;DHT22;13371;52.080;5.624;2023-04-08T12:04:56;16.50;73.70
25450;DHT22;13371;52.080;5.624;2023-04-08T12:07:22;16.50;77.00
25450;DHT22;13371;52.080;5.624;2023-04-08T12:09:47;16.40;74.10
25450;DHT22;13371;52.080;5.624;2023-04-08T12:12:13;16.60;75.90
25450;DHT22;13371;52.080;5.624;2023-04-08T12:14:38;16.60;73.00
25450;DHT22;13371;52.080;5.624;2023-04-08T12:17:04;16.30;71.70
25450;DHT22;13371;52.080;5.624;2023-04-08T12:19:30;16.10;72.90
25450;DHT22;13371;52.080;5.624;2023-04-08T12:21:56;16.40;75.80
25450;DHT22;13371;52.080;5.624;2023-04-08T12:24:21;16.50;76.70
25450;DHT22;13371;52.080;5.624;2023-04-08T12:29:52;16.70;75.40
25450;DHT22;13371;52.080;5.624;2023-04-08T12:32:18;17.10;75.60
25450;DHT22;13371;52.080;5.624;2023-04-08T12:34:44;17.00;74.70
25450;DHT22;13371;52.080;5.624;2023-04-08T12:37:09;16.70;74.10
25450;DHT22;13371;52.080;5.624;2023-04-08T12:39:35;16.70;76.60
25450;DHT22;13371;52.080;5.624;2023-04-08T12:42:01;17.00;75.60
25450;DHT22;13371;52.080;5.624;2023-04-08T12:44:27;17.30;74.20
25450;DHT22;13371;52.080;5.624;2023-04-08T12:46:52;17.10;73.00
25450;DHT22;13371;52.080;5.624;2023-04-08T12:49:19;16.90;76.60
25450;DHT22;13371;52.080;5.624;2023-04-08T12:51:44;17.40;76.00
25450;DHT22;13371;52.080;5.624;2023-04-08T12:54:10;16.90;70.10
25450;DHT22;13371;52.080;5.624;2023-04-08T12:56:36;17.00;76.00
25450;DHT22;13371;52.080;5.624;2023-04-08T12:59:03;17.90;73.50
25450;DHT22;13371;52.080;5.624;2023-04-08T13:01:28;18.00;69.40
25450;DHT22;13371;52.080;5.624;2023-04-08T13:03:57;17.80;69.00
25450;DHT22;13371;52.080;5.624;2023-04-08T13:06:23;18.00;67.20
25450;DHT22;13371;52.080;5.624;2023-04-08T13:08:48;17.40;68.40
25450;DHT22;13371;52.080;5.624;2023-04-08T13:11:14;17.80;70.20
25450;DHT22;13371;52.080;5.624;2023-04-08T13:13:39;17.70;69.20
25450;DHT22;13371;52.080;5.624;2023-04-08T13:16:05;17.60;69.40
25450;DHT22;13371;52.080;5.624;2023-04-08T13:18:30;17.60;76.70
25450;DHT22;13371;52.080;5.624;2023-04-08T13:20:56;17.70;72.10
25450;DHT22;13371;52.080;5.624;2023-04-08T13:23:22;18.10;72.80
25450;DHT22;13371;52.080;5.624;2023-04-08T13:25:48;18.10;71.70
25450;DHT22;13371;52.080;5.624;2023-04-08T13:28:13;17.70;76.30
25450;DHT22;13371;52.080;5.624;2023-04-08T13:30:39;17.30;72.60
25450;DHT22;13371;52.080;5.624;2023-04-08T13:33:05;17.00;74.30
25450;DHT22;13371;52.080;5.624;2023-04-08T13:35:31;17.10;74.50
25450;DHT22;13371;52.080;5.624;2023-04-08T13:37:56;16.80;74.50
25450;DHT22;13371;52.080;5.624;2023-04-08T13:40:22;16.70;74.50
25450;DHT22;13371;52.080;5.624;2023-04-08T13:42:48;16.80;72.50
25450;DHT22;13371;52.080;5.624;2023-04-08T13:45:13;16.30;74.40
25450;DHT22;13371;52.080;5.624;2023-04-08T13:47:39;16.80;74.00
25450;DHT22;13371;52.080;5.624;2023-04-08T13:50:06;16.80;76.80
25450;DHT22;13371;52.080;5.624;2023-04-08T13:52:32;16.60;74.60
25450;DHT22;13371;52.080;5.624;2023-04-08T13:54:58;16.90;73.70
25450;DHT22;13371;52.080;5.624;2023-04-08T13:57:23;16.80;72.40
25450;DHT22;13371;52.080;5.624;2023-04-08T13:59:49;16.90;75.10
25450;DHT22;13371;52.080;5.624;2023-04-08T14:02:14;17.40;74.20
25450;DHT22;13371;52.080;5.624;2023-04-08T14:04:40;17.30;73.50
25450;DHT22;13371;52.080;5.624;2023-04-08T14:07:06;16.80;77.10
25450;DHT22;13371;52.080;5.624;2023-04-08T14:09:32;17.00;76.70
25450;DHT22;13371;52.080;5.624;2023-04-08T14:11:58;17.40;74.90
25450;DHT22;13371;52.080;5.624;2023-04-08T14:14:23;17.40;73.40
25450;DHT22;13371;52.080;5.624;2023-04-08T14:16:49;17.20;74.30
25450;DHT22;13371;52.080;5.624;2023-04-08T14:19:14;17.00;77.20
25450;DHT22;13371;52.080;5.624;2023-04-08T14:21:40;16.20;79.60
25450;DHT22;13371;52.080;5.624;2023-04-08T14:24:06;16.20;80.50
25450;DHT22;13371;52.080;5.624;2023-04-08T14:26:32;16.70;80.90
25450;DHT22;13371;52.080;5.624;2023-04-08T14:29:04;16.90;79.00
25450;DHT22;13371;52.080;5.624;2023-04-08T14:31:31;17.00;78.40
25450;DHT22;13371;52.080;5.624;2023-04-08T14:33:58;17.10;79.70
25450;DHT22;13371;52.080;5.624;2023-04-08T14:36:24;16.70;80.00
25450;DHT22;13371;52.080;5.624;2023-04-08T14:38:51;17.10;80.50
25450;DHT22;13371;52.080;5.624;2023-04-08T14:41:17;15.80;82.50
25450;DHT22;13371;52.080;5.624;2023-04-08T14:43:42;16.30;83.50
25450;DHT22;13371;52.080;5.624;2023-04-08T14:46:08;16.20;80.10
25450;DHT22;13371;52.080;5.624;2023-04-08T14:48:33;17.00;80.60
25450;DHT22;13371;52.080;5.624;2023-04-08T14:50:59;17.40;80.20
25450;DHT22;13371;52.080;5.624;2023-04-08T14:53:25;17.10;79.00
25450;DHT22;13371;52.080;5.624;2023-04-08T14:55:50;16.90;78.70
25450;DHT22;13371;52.080;5.624;2023-04-08T14:58:16;17.00;80.90
25450;DHT22;13371;52.080;5.624;2023-04-08T15:00:42;17.30;78.60
25450;DHT22;13371;52.080;5.624;2023-04-08T15:03:15;17.30;80.40
25450;DHT22;13371;52.080;5.624;2023-04-08T15:05:41;17.60;78.20
25450;DHT22;13371;52.080;5.624;2023-04-08T15:08:07;17.20;76.50
25450;DHT22;13371;52.080;5.624;2023-04-08T15:10:32;17.00;78.00
25450;DHT22;13371;52.080;5.624;2023-04-08T15:12:58;17.00;78.60
25450;DHT22;13371;52.080;5.624;2023-04-08T15:15:24;17.20;77.50
25450;DHT22;13371;52.080;5.624;2023-04-08T15:17:49;17.40;76.00
25450;DHT22;13371;52.080;5.624;2023-04-08T15:20:15;17.50;78.00
25450;DHT22;13371;52.080;5.624;2023-04-08T15:22:43;17.00;77.80
25450;DHT22;13371;52.080;5.624;2023-04-08T15:25:09;17.30;77.20
25450;DHT22;13371;52.080;5.624;2023-04-08T15:27:35;17.80;77.70
25450;DHT22;13371;52.080;5.624;2023-04-08T15:30:01;18.10;76.80
25450;DHT22;13371;52.080;5.624;2023-04-08T15:32:26;18.10;75.30
25450;DHT22;13371;52.080;5.624;2023-04-08T15:34:52;18.00;76.20
25450;DHT22;13371;52.080;5.624;2023-04-08T15:37:17;17.60;77.60
25450;DHT22;13371;52.080;5.624;2023-04-08T15:39:43;18.10;79.30
25450;DHT22;13371;52.080;5.624;2023-04-08T15:42:09;18.40;75.90
25450;DHT22;13371;52.080;5.624;2023-04-08T15:44:35;18.40;77.00
25450;DHT22;13371;52.080;5.624;2023-04-08T15:47:01;17.90;76.90
25450;DHT22;13371;52.080;5.624;2023-04-08T15:49:27;17.60;79.10
25450;DHT22;13371;52.080;5.624;2023-04-08T15:51:52;17.60;80.30
25450;DHT22;13371;52.080;5.624;2023-04-08T15:54:18;17.20;80.50
25450;DHT22;13371;52.080;5.624;2023-04-08T15:56:45;17.20;81.20